createdAt,value
2022-11-07T00:00:34.536Z,16.88
2022-11-07T00:01:36.268Z,13.43
2022-11-07T00:02:38.800Z,14.68
2022-11-07T00:03:40.490Z,14.05
2022-11-07T00:04:42.268Z,13.55
2022-11-07T00:05:43.782Z,12.45
2022-11-07T00:06:45.216Z,12.05
2022-11-07T00:07:46.775Z,11.40
2022-11-07T00:08:49.361Z,12.93
2022-11-07T00:09:51.149Z,11.68
2022-11-07T00:10:54.673Z,12.25
2022-11-07T00:11:56.790Z,12.63
2022-11-07T00:12:58.294Z,13.15
2022-11-07T00:13:59.688Z,12.02
2022-11-07T00:15:01.971Z,12.50
2022-11-07T00:16:10.516Z,12.43
2022-11-07T00:17:11.909Z,12.93
2022-11-07T00:18:13.305Z,11.23
2022-11-07T00:19:17.910Z,12.10
2022-11-07T00:20:20.222Z,12.88
2022-11-07T00:21:21.663Z,11.73
2022-11-07T00:22:23.150Z,11.50
2022-11-07T00:23:24.656Z,11.25
2022-11-07T00:24:26.136Z,11.57
2022-11-07T00:25:27.564Z,12.05
2022-11-07T00:26:28.975Z,10.10
2022-11-07T00:27:30.484Z,11.85
2022-11-07T00:28:39.915Z,10.18
2022-11-07T00:29:41.699Z,11.15
2022-11-07T00:30:43.758Z,10.32
2022-11-07T00:31:45.775Z,10.88
2022-11-07T00:32:47.193Z,10.00
2022-11-07T00:33:48.933Z,10.82
2022-11-07T00:34:50.705Z,11.07
2022-11-07T00:35:52.177Z,10.45
2022-11-07T00:36:53.594Z,10.23
2022-11-07T00:37:56.285Z,10.30
2022-11-07T00:38:57.838Z,10.93
2022-11-07T00:39:59.579Z,11.63
2022-11-07T00:41:03.482Z,10.18
2022-11-07T00:42:05.013Z,11.07
2022-11-07T00:43:06.435Z,10.32
2022-11-07T00:44:07.983Z,14.82
2022-11-07T00:45:12.091Z,14.50
2022-11-07T00:46:16.042Z,16.80
2022-11-07T00:47:17.485Z,13.93
2022-11-07T00:48:19.475Z,11.57
2022-11-07T00:49:21.217Z,11.07
2022-11-07T00:50:22.687Z,9.93
2022-11-07T00:51:27.150Z,11.82
2022-11-07T00:52:28.577Z,10.48
2022-11-07T00:53:29.986Z,9.35
2022-11-07T00:54:31.405Z,9.40
2022-11-07T00:55:33.381Z,9.88
2022-11-07T00:56:34.800Z,11.07
2022-11-07T00:57:36.227Z,9.68
2022-11-07T00:58:38.084Z,10.10
2022-11-07T00:59:39.825Z,10.98
2022-11-07T01:00:42.244Z,9.93
2022-11-07T01:01:43.822Z,8.70
2022-11-07T01:03:05.305Z,9.52
2022-11-07T01:05:26.814Z,10.05
2022-11-07T01:06:33.407Z,9.63
2022-11-07T01:07:34.942Z,10.60
2022-11-07T01:08:36.949Z,10.05
2022-11-07T01:09:38.745Z,9.77
2022-11-07T01:10:43.034Z,9.25
2022-11-07T01:11:44.583Z,9.63
2022-11-07T01:12:45.981Z,9.00
2022-11-07T01:13:47.382Z,9.43
2022-11-07T01:14:49.113Z,10.20
2022-11-07T01:15:51.275Z,9.07
2022-11-07T01:16:52.704Z,9.10
2022-11-07T01:17:54.361Z,8.70
2022-11-07T01:18:56.008Z,9.43
2022-11-07T01:19:57.899Z,9.70
2022-11-07T01:20:59.279Z,9.10
2022-11-07T01:22:00.723Z,9.35
2022-11-07T01:23:02.532Z,9.57
2022-11-07T01:24:04.208Z,10.18
2022-11-07T01:25:06.415Z,8.98
2022-11-07T01:26:10.813Z,9.98
2022-11-07T01:27:12.195Z,8.70
2022-11-07T01:28:13.654Z,8.27
2022-11-07T01:29:17.054Z,10.32
2022-11-07T01:30:18.471Z,8.65
2022-11-07T01:31:19.968Z,8.55
2022-11-07T01:32:21.418Z,9.48
2022-11-07T01:33:22.874Z,10.35
2022-11-07T01:34:24.373Z,8.50
2022-11-07T01:35:25.818Z,8.90
2022-11-07T01:36:27.886Z,8.73
2022-11-07T01:37:29.296Z,9.02
2022-11-07T01:38:31.130Z,8.05
2022-11-07T01:39:32.889Z,8.63
2022-11-07T01:41:00.689Z,8.00
2022-11-07T01:42:02.105Z,8.43
2022-11-07T01:43:03.519Z,8.45
2022-11-07T01:44:07.811Z,8.52
2022-11-07T01:45:19.080Z,9.40
2022-11-07T01:46:22.791Z,8.52
2022-11-07T01:47:29.846Z,9.63
2022-11-07T01:48:31.408Z,9.07
2022-11-07T01:49:37.138Z,8.00
2022-11-07T01:50:38.757Z,7.50
2022-11-07T01:51:49.343Z,7.97
2022-11-07T01:52:53.418Z,8.02
2022-11-07T01:53:55.889Z,8.00
2022-11-07T01:55:14.713Z,8.55
2022-11-07T01:56:18.753Z,8.27
2022-11-07T01:57:34.778Z,8.77
2022-11-07T01:58:36.430Z,8.40
2022-11-07T01:59:40.872Z,8.45
2022-11-07T02:00:42.305Z,8.50
2022-11-07T02:01:44.091Z,9.20
2022-11-07T02:02:48.330Z,7.97
2022-11-07T02:03:51.969Z,8.98
2022-11-07T02:04:55.913Z,7.68
2022-11-07T02:06:02.659Z,9.13
2022-11-07T02:07:15.849Z,8.30
2022-11-07T02:08:17.933Z,8.02
2022-11-07T02:09:19.564Z,8.70
2022-11-07T02:10:21.384Z,8.43
2022-11-07T02:11:23.850Z,9.48
2022-11-07T02:12:27.441Z,8.88
2022-11-07T02:13:31.985Z,8.77
2022-11-07T02:14:33.423Z,9.00
2022-11-07T02:15:36.597Z,8.30
2022-11-07T02:16:38.069Z,8.20
2022-11-07T02:17:40.062Z,8.18
2022-11-07T02:18:44.533Z,7.78
2022-11-07T02:19:51.258Z,7.63
2022-11-07T02:20:53.918Z,7.38
2022-11-07T02:22:19.965Z,8.10
2022-11-07T02:23:31.309Z,8.35
2022-11-07T02:24:35.941Z,7.97
2022-11-07T02:25:38.150Z,8.65
2022-11-07T02:26:41.235Z,8.02
2022-11-07T02:27:43.731Z,7.85
2022-11-07T02:28:47.895Z,8.82
2022-11-07T02:29:54.977Z,8.13
2022-11-07T02:30:56.512Z,7.63
2022-11-07T02:32:06.985Z,7.70
2022-11-07T02:33:19.865Z,9.10
2022-11-07T02:34:21.272Z,8.88
2022-11-07T02:35:38.012Z,8.70
2022-11-07T02:36:39.510Z,7.90
2022-11-07T02:37:40.966Z,8.50
2022-11-07T02:38:42.683Z,7.13
2022-11-07T02:39:44.132Z,6.95
2022-11-07T02:40:49.359Z,7.40
2022-11-07T02:41:51.850Z,8.32
2022-11-07T02:42:54.182Z,8.63
2022-11-07T02:44:06.324Z,6.95
2022-11-07T02:45:08.148Z,7.35
2022-11-07T02:46:11.769Z,7.28
2022-11-07T02:47:13.297Z,8.35
2022-11-07T02:48:14.741Z,6.90
2022-11-07T02:49:16.198Z,7.53
2022-11-07T02:50:18.216Z,6.75
2022-11-07T02:51:19.724Z,8.73
2022-11-07T02:52:21.174Z,8.05
2022-11-07T02:53:22.602Z,7.20
2022-11-07T02:54:24.059Z,7.32
2022-11-07T02:55:25.792Z,7.00
2022-11-07T02:56:27.265Z,7.13
2022-11-07T02:57:28.672Z,8.55
2022-11-07T02:58:30.086Z,6.88
2022-11-07T02:59:31.469Z,8.20
2022-11-07T03:00:33.225Z,7.18
2022-11-07T03:01:34.694Z,7.47
2022-11-07T03:02:36.278Z,6.68
2022-11-07T03:03:43.481Z,6.53
2022-11-07T03:04:49.018Z,6.93
2022-11-07T03:05:51.038Z,8.07
2022-11-07T03:06:52.440Z,6.82
2022-11-07T03:07:53.972Z,8.10
2022-11-07T03:08:55.558Z,7.22
2022-11-07T03:09:57.284Z,6.82
2022-11-07T03:10:58.791Z,6.28
2022-11-07T03:12:00.191Z,6.22
2022-11-07T03:13:02.127Z,6.80
2022-11-07T03:14:03.540Z,7.07
2022-11-07T03:15:08.108Z,7.32
2022-11-07T03:16:11.182Z,6.88
2022-11-07T03:17:12.709Z,6.57
2022-11-07T03:18:14.194Z,6.68
2022-11-07T03:19:15.682Z,6.03
2022-11-07T03:20:17.840Z,6.90
2022-11-07T03:21:19.551Z,7.03
2022-11-07T03:22:20.968Z,6.00
2022-11-07T03:23:22.367Z,5.45
2022-11-07T03:24:23.770Z,6.95
2022-11-07T03:25:25.224Z,6.07
2022-11-07T03:26:26.635Z,8.20
2022-11-07T03:27:28.350Z,6.57
2022-11-07T03:28:29.936Z,7.28
2022-11-07T03:29:31.377Z,7.20
2022-11-07T03:30:32.946Z,7.40
2022-11-07T03:31:34.660Z,6.50
2022-11-07T03:32:36.142Z,6.35
2022-11-07T03:33:37.543Z,6.22
2022-11-07T03:34:38.974Z,6.18
2022-11-07T03:35:40.744Z,5.97
2022-11-07T03:36:42.200Z,6.35
2022-11-07T03:37:46.477Z,6.22
2022-11-07T03:38:47.943Z,5.40
2022-11-07T03:39:49.346Z,6.05
2022-11-07T03:40:50.748Z,6.35
2022-11-07T03:41:52.191Z,6.13
2022-11-07T03:42:53.656Z,7.25
2022-11-07T03:43:55.147Z,6.82
2022-11-07T03:44:56.911Z,5.65
2022-11-07T03:45:58.369Z,5.55
2022-11-07T03:46:59.770Z,6.15
2022-11-07T03:48:01.225Z,6.05
2022-11-07T03:49:02.707Z,5.80
2022-11-07T03:50:05.566Z,5.85
2022-11-07T03:51:08.478Z,5.93
2022-11-07T03:56:19.877Z,5.10
2022-11-07T03:57:21.313Z,5.50
2022-11-07T03:58:24.043Z,5.40
2022-11-07T03:59:25.821Z,6.07
2022-11-07T04:00:27.452Z,5.35
2022-11-07T04:01:29.043Z,6.45
2022-11-07T04:02:30.589Z,5.25
2022-11-07T04:03:32.867Z,6.07
2022-11-07T04:04:34.289Z,5.28
2022-11-07T04:05:35.718Z,5.82
2022-11-07T04:06:37.109Z,5.18
2022-11-07T04:07:38.537Z,6.70
2022-11-07T04:08:40.002Z,4.70
2022-11-07T04:09:41.425Z,4.70
2022-11-07T04:10:43.146Z,5.13
2022-11-07T04:12:03.038Z,5.68
2022-11-07T04:13:22.875Z,5.30
2022-11-07T04:14:42.650Z,6.03
2022-11-07T04:16:04.026Z,5.65
2022-11-07T04:18:22.866Z,4.95
2022-11-07T04:19:26.474Z,5.13
2022-11-07T04:20:28.778Z,5.25
2022-11-07T04:21:31.283Z,6.20
2022-11-07T04:22:32.900Z,5.15
2022-11-07T04:23:34.737Z,5.50
2022-11-07T04:24:37.520Z,5.43
2022-11-07T04:26:00.293Z,6.10
2022-11-07T04:27:20.534Z,5.43
2022-11-07T04:28:21.957Z,5.57
2022-11-07T04:29:23.364Z,4.97
2022-11-07T04:30:28.187Z,4.93
2022-11-07T04:31:30.340Z,5.45
2022-11-07T04:32:31.753Z,5.80
2022-11-07T04:33:33.154Z,4.72
2022-11-07T04:34:34.662Z,6.93
2022-11-07T04:35:36.107Z,6.18
2022-11-07T04:36:37.844Z,5.72
2022-11-07T04:37:39.366Z,4.85
2022-11-07T04:38:40.765Z,5.18
2022-11-07T04:39:42.203Z,5.00
2022-11-07T04:40:43.673Z,4.95
2022-11-07T04:41:45.106Z,4.78
2022-11-07T04:42:47.509Z,5.43
2022-11-07T04:43:49.639Z,6.70
2022-11-07T04:44:51.191Z,5.78
2022-11-07T04:45:52.995Z,5.60
2022-11-07T04:46:54.749Z,5.75
2022-11-07T04:47:56.163Z,5.15
2022-11-07T04:48:57.583Z,8.38
2022-11-07T04:49:59.341Z,5.07
2022-11-07T04:51:00.877Z,4.93
2022-11-07T04:52:02.578Z,4.97
2022-11-07T04:53:04.087Z,4.65
2022-11-07T04:54:06.337Z,5.32
2022-11-07T04:55:10.165Z,5.15
2022-11-07T04:56:11.600Z,4.88
2022-11-07T04:57:13.630Z,4.68
2022-11-07T04:58:15.036Z,6.70
2022-11-07T04:59:16.441Z,4.80
2022-11-07T05:00:19.119Z,5.00
2022-11-07T05:01:20.939Z,5.82
2022-11-07T05:02:25.682Z,5.53
2022-11-07T05:03:27.214Z,6.15
2022-11-07T05:04:28.638Z,6.68
2022-11-07T05:05:30.123Z,5.68
2022-11-07T05:06:36.263Z,5.10
2022-11-07T05:07:38.441Z,5.10
2022-11-07T05:08:39.907Z,5.75
2022-11-07T05:09:41.320Z,6.13
2022-11-07T05:10:42.716Z,5.28
2022-11-07T05:11:48.451Z,5.18
2022-11-07T05:12:50.348Z,5.65
2022-11-07T05:13:51.756Z,5.57
2022-11-07T05:14:53.171Z,5.70
2022-11-07T05:15:54.624Z,4.70
2022-11-07T05:16:56.386Z,6.20
2022-11-07T05:17:57.806Z,6.20
2022-11-07T05:18:59.244Z,4.70
2022-11-07T05:20:00.801Z,4.97
2022-11-07T05:21:02.212Z,5.00
2022-11-07T05:22:22.752Z,5.03
2022-11-07T05:23:25.181Z,5.95
2022-11-07T05:24:26.581Z,6.97
2022-11-07T05:25:28.022Z,6.22
2022-11-07T05:26:29.450Z,5.97
2022-11-07T05:27:30.858Z,5.05
2022-11-07T05:28:38.805Z,5.10
2022-11-07T05:29:40.841Z,5.07
2022-11-07T05:30:43.895Z,6.15
2022-11-07T05:31:45.664Z,5.10
2022-11-07T05:32:47.081Z,4.97
2022-11-07T05:33:48.488Z,5.15
2022-11-07T05:34:49.893Z,5.43
2022-11-07T05:35:51.375Z,6.45
2022-11-07T05:36:53.153Z,6.05
2022-11-07T05:37:54.578Z,5.55
2022-11-07T05:38:55.997Z,5.40
2022-11-07T05:39:57.457Z,4.53
2022-11-07T05:41:03.372Z,5.15
2022-11-07T05:42:05.669Z,4.95
2022-11-07T05:43:10.439Z,5.00
2022-11-07T05:44:11.958Z,5.57
2022-11-07T05:45:13.379Z,5.00
2022-11-07T05:46:14.845Z,5.15
2022-11-07T05:47:16.261Z,5.20
2022-11-07T05:48:17.674Z,5.88
2022-11-07T05:49:19.131Z,5.25
2022-11-07T05:50:20.531Z,5.35
2022-11-07T05:51:22.288Z,5.40
2022-11-07T05:52:23.774Z,5.03
2022-11-07T05:53:26.329Z,7.03
2022-11-07T05:54:28.154Z,5.40
2022-11-07T05:55:30.294Z,6.18
2022-11-07T05:56:31.782Z,4.97
2022-11-07T05:57:33.354Z,7.68
2022-11-07T05:58:34.819Z,5.68
2022-11-07T05:59:36.249Z,6.03
2022-11-07T06:00:38.254Z,5.88
2022-11-07T06:01:39.830Z,5.78
2022-11-07T06:02:41.627Z,5.45
2022-11-07T06:03:43.170Z,4.85
2022-11-07T06:04:44.597Z,7.53
2022-11-07T06:05:46.634Z,4.50
2022-11-07T06:06:48.190Z,5.60
2022-11-07T06:07:49.666Z,5.45
2022-11-07T06:08:51.074Z,4.93
2022-11-07T06:09:52.585Z,5.35
2022-11-07T06:10:54.313Z,6.43
2022-11-07T06:11:55.729Z,8.85
2022-11-07T06:13:02.130Z,5.43
2022-11-07T06:14:03.917Z,5.45
2022-11-07T06:15:05.774Z,6.40
2022-11-07T06:16:07.709Z,6.78
2022-11-07T06:17:09.164Z,4.78
2022-11-07T06:18:19.043Z,5.65
2022-11-07T06:19:20.518Z,5.03
2022-11-07T06:20:21.994Z,5.13
2022-11-07T06:21:23.411Z,6.03
2022-11-07T06:22:25.189Z,6.82
2022-11-07T06:23:27.380Z,6.32
2022-11-07T06:24:28.808Z,5.47
2022-11-07T06:25:30.614Z,5.55
2022-11-07T06:26:32.045Z,5.35
2022-11-07T06:27:33.489Z,5.60
2022-11-07T06:28:35.074Z,6.90
2022-11-07T06:29:36.468Z,5.95
2022-11-07T06:30:37.958Z,5.05
2022-11-07T06:31:39.774Z,7.35
2022-11-07T06:32:44.225Z,5.85
2022-11-07T06:33:45.650Z,5.38
2022-11-07T06:34:47.790Z,4.97
2022-11-07T06:35:49.319Z,5.25
2022-11-07T06:37:02.471Z,5.93
2022-11-07T06:38:06.242Z,6.13
2022-11-07T06:39:07.682Z,5.55
2022-11-07T06:40:09.957Z,6.45
2022-11-07T06:41:13.445Z,5.18
2022-11-07T06:42:14.857Z,5.70
2022-11-07T06:43:19.990Z,6.05
2022-11-07T06:44:21.790Z,4.90
2022-11-07T06:45:23.664Z,5.32
2022-11-07T06:46:25.306Z,5.18
2022-11-07T06:47:26.852Z,5.15
2022-11-07T06:48:28.337Z,6.70
2022-11-07T06:49:29.872Z,5.00
2022-11-07T06:50:31.544Z,4.82
2022-11-07T06:51:33.149Z,6.70
2022-11-07T06:52:34.794Z,6.20
2022-11-07T06:53:36.628Z,6.43
2022-11-07T06:54:38.056Z,6.40
2022-11-07T06:55:40.005Z,5.88
2022-11-07T06:56:41.449Z,5.32
2022-11-07T06:57:42.863Z,5.85
2022-11-07T06:58:44.369Z,5.75
2022-11-07T06:59:51.476Z,7.10
2022-11-07T07:00:53.617Z,6.50
2022-11-07T07:01:55.193Z,5.47
2022-11-07T07:02:58.843Z,5.50
2022-11-07T07:04:01.071Z,5.28
2022-11-07T07:05:02.510Z,5.47
2022-11-07T07:06:06.931Z,6.00
2022-11-07T07:07:08.398Z,6.43
2022-11-07T07:08:12.217Z,7.50
2022-11-07T07:09:13.728Z,5.90
2022-11-07T07:10:15.424Z,6.25
2022-11-07T07:11:17.186Z,7.45
2022-11-07T07:12:18.650Z,5.40
2022-11-07T07:13:20.116Z,7.32
2022-11-07T07:14:21.521Z,6.05
2022-11-07T07:15:23.556Z,7.45
2022-11-07T07:16:25.018Z,6.25
2022-11-07T07:17:26.440Z,5.80
2022-11-07T07:18:28.789Z,6.55
2022-11-07T07:19:30.203Z,6.57
2022-11-07T07:20:31.998Z,6.78
2022-11-07T07:21:33.798Z,5.25
2022-11-07T07:22:35.231Z,5.38
2022-11-07T07:23:38.646Z,6.40
2022-11-07T07:24:40.101Z,6.50
2022-11-07T07:25:41.526Z,7.85
2022-11-07T07:26:42.934Z,5.90
2022-11-07T07:27:44.370Z,6.82
2022-11-07T07:28:45.888Z,6.18
2022-11-07T07:29:47.629Z,5.80
2022-11-07T07:30:52.108Z,6.38
2022-11-07T07:31:53.776Z,6.30
2022-11-07T07:32:59.330Z,9.90
2022-11-07T07:34:00.948Z,6.32
2022-11-07T07:35:03.095Z,6.85
2022-11-07T07:36:05.235Z,6.88
2022-11-07T07:37:06.658Z,6.45
2022-11-07T07:38:08.506Z,5.95
2022-11-07T07:39:09.980Z,7.05
2022-11-07T07:40:11.891Z,5.90
2022-11-07T07:41:13.712Z,6.47
2022-11-07T07:42:15.124Z,6.13
2022-11-07T07:43:16.872Z,7.28
2022-11-07T07:44:18.456Z,7.00
2022-11-07T07:45:20.001Z,6.43
2022-11-07T07:46:23.535Z,6.45
2022-11-07T07:47:24.956Z,8.50
2022-11-07T07:48:27.139Z,8.10
2022-11-07T07:49:29.053Z,6.30
2022-11-07T07:50:30.526Z,7.43
2022-11-07T07:51:31.928Z,7.65
2022-11-07T07:52:33.414Z,8.18
2022-11-07T07:53:34.865Z,8.10
2022-11-07T07:54:37.598Z,6.35
2022-11-07T07:55:39.152Z,6.45
2022-11-07T07:56:40.556Z,6.35
2022-11-07T07:57:42.959Z,6.45
2022-11-07T07:58:45.165Z,6.40
2022-11-07T07:59:46.573Z,6.22
2022-11-07T08:00:52.181Z,7.13
2022-11-07T08:01:56.847Z,6.70
2022-11-07T08:03:03.486Z,6.45
2022-11-07T08:04:05.223Z,7.03
2022-11-07T08:05:07.008Z,6.95
2022-11-07T08:06:10.614Z,6.35
2022-11-07T08:07:12.054Z,8.57
2022-11-07T08:08:13.546Z,7.30
2022-11-07T08:09:15.061Z,7.45
2022-11-07T08:10:44.294Z,9.20
2022-11-07T08:11:39.391Z,6.68
2022-11-07T08:12:45.565Z,8.63
2022-11-07T08:13:47.035Z,7.47
2022-11-07T08:14:48.427Z,6.72
2022-11-07T08:15:51.631Z,8.23
2022-11-07T08:16:53.119Z,7.30
2022-11-07T08:17:54.607Z,6.63
2022-11-07T08:18:56.071Z,6.57
2022-11-07T08:19:57.617Z,7.13
2022-11-07T08:20:59.391Z,7.55
2022-11-07T08:22:00.904Z,6.70
2022-11-07T08:23:12.975Z,9.02
2022-11-07T08:24:17.722Z,6.78
2022-11-07T08:25:19.247Z,7.13
2022-11-07T08:26:20.898Z,7.78
2022-11-07T08:27:22.313Z,8.15
2022-11-07T08:28:28.099Z,6.50
2022-11-07T08:29:31.900Z,6.78
2022-11-07T08:30:33.386Z,6.70
2022-11-07T08:31:34.877Z,7.65
2022-11-07T08:32:36.308Z,9.02
2022-11-07T08:33:38.769Z,5.13
2022-11-07T08:34:40.250Z,8.75
2022-11-07T08:35:42.858Z,8.13
2022-11-07T08:36:44.507Z,6.10
2022-11-07T08:37:45.938Z,8.02
2022-11-07T08:38:47.575Z,6.72
2022-11-07T08:39:49.101Z,6.15
2022-11-07T08:40:50.956Z,6.60
2022-11-07T08:41:52.471Z,6.45
2022-11-07T08:42:59.412Z,9.18
2022-11-07T08:44:00.882Z,7.40
2022-11-07T08:45:02.380Z,7.15
2022-11-07T08:46:04.215Z,5.57
2022-11-07T08:47:08.546Z,7.18
2022-11-07T08:48:10.340Z,6.40
2022-11-07T08:49:11.816Z,5.20
2022-11-07T08:50:13.330Z,6.05
2022-11-07T08:51:14.794Z,6.85
2022-11-07T08:52:16.233Z,5.88
2022-11-07T08:53:17.965Z,4.93
2022-11-07T08:54:21.283Z,8.32
2022-11-07T08:55:22.792Z,7.88
2022-11-07T08:56:24.265Z,6.07
2022-11-07T08:57:25.709Z,5.85
2022-11-07T08:58:29.964Z,6.28
2022-11-07T08:59:31.736Z,5.95
2022-11-07T09:00:34.533Z,6.13
2022-11-07T09:01:54.048Z,5.93
2022-11-07T09:04:23.704Z,6.00
2022-11-07T09:05:25.591Z,5.22
2022-11-07T09:06:27.073Z,5.20
2022-11-07T09:07:28.520Z,6.40
2022-11-07T09:08:29.989Z,5.30
2022-11-07T09:09:31.407Z,6.80
2022-11-07T09:10:32.897Z,7.85
2022-11-07T09:11:34.339Z,7.53
2022-11-07T09:12:35.785Z,6.85
2022-11-07T09:13:37.277Z,5.50
2022-11-07T09:14:38.729Z,8.00
2022-11-07T09:15:40.218Z,6.57
2022-11-07T09:16:41.669Z,8.75
2022-11-07T09:17:43.864Z,5.45
2022-11-07T09:18:47.188Z,6.68
2022-11-07T09:19:48.678Z,5.95
2022-11-07T09:20:50.108Z,6.57
2022-11-07T09:21:51.530Z,5.35
2022-11-07T09:22:56.658Z,5.85
2022-11-07T09:23:58.122Z,5.70
2022-11-07T09:24:59.565Z,6.50
2022-11-07T09:26:01.412Z,5.82
2022-11-07T09:27:02.821Z,6.05
2022-11-07T09:28:04.696Z,5.20
2022-11-07T09:29:06.157Z,6.30
2022-11-07T09:30:08.263Z,5.38
2022-11-07T09:31:10.079Z,5.97
2022-11-07T09:32:38.208Z,8.32
2022-11-07T09:33:33.071Z,6.00
2022-11-07T09:34:34.511Z,6.90
2022-11-07T09:35:36.032Z,6.22
2022-11-07T09:36:37.452Z,7.32
2022-11-07T09:37:40.124Z,7.10
2022-11-07T09:38:41.567Z,7.45
2022-11-07T09:39:43.106Z,5.60
2022-11-07T09:41:00.731Z,5.70
2022-11-07T09:42:15.514Z,5.07
2022-11-07T09:43:30.537Z,6.70
2022-11-07T09:44:59.230Z,6.05
2022-11-07T09:46:24.881Z,6.47
2022-11-07T09:47:32.305Z,6.55
2022-11-07T09:48:43.348Z,6.53
2022-11-07T09:49:48.605Z,6.25
2022-11-07T09:50:51.472Z,6.53
2022-11-07T09:52:05.002Z,6.05
2022-11-07T09:53:16.829Z,5.53
2022-11-07T09:54:27.392Z,4.65
2022-11-07T09:56:04.070Z,5.97
2022-11-07T09:57:08.831Z,5.80
2022-11-07T09:58:26.526Z,5.20
2022-11-07T09:59:36.568Z,4.35
2022-11-07T10:00:38.564Z,7.68
2022-11-07T10:01:40.172Z,5.22
2022-11-07T10:02:52.570Z,5.50
2022-11-07T10:04:22.951Z,5.10
2022-11-07T10:05:41.611Z,4.03
2022-11-07T10:06:49.280Z,4.63
2022-11-07T10:08:08.993Z,4.82
2022-11-07T10:09:25.669Z,4.32
2022-11-07T10:10:49.698Z,3.97
2022-11-07T10:12:33.467Z,5.00
2022-11-07T10:13:50.232Z,6.13
2022-11-07T10:15:13.034Z,5.75
2022-11-07T10:16:32.525Z,6.60
2022-11-07T10:17:58.541Z,3.63
2022-11-07T10:19:41.082Z,5.85
2022-11-07T10:21:36.406Z,4.15
2022-11-07T10:22:45.300Z,5.97
2022-11-07T10:24:06.606Z,3.92
2022-11-07T10:26:15.403Z,5.55
2022-11-07T10:27:16.967Z,4.35
2022-11-07T10:28:20.596Z,3.90
2022-11-07T10:29:27.182Z,3.60
2022-11-07T10:30:28.641Z,4.50
2022-11-07T10:31:38.731Z,6.75
2022-11-07T10:32:53.786Z,6.15
2022-11-07T10:34:02.671Z,7.18
2022-11-07T10:35:26.135Z,6.30
2022-11-07T10:36:30.204Z,5.00
2022-11-07T10:37:31.870Z,4.85
2022-11-07T10:38:35.593Z,5.22
2022-11-07T10:39:37.004Z,6.05
2022-11-07T10:40:41.617Z,4.95
2022-11-07T10:41:52.072Z,5.47
2022-11-07T10:42:53.821Z,6.70
2022-11-07T10:44:09.906Z,5.13
2022-11-07T10:45:16.319Z,5.57
2022-11-07T10:46:22.678Z,5.28
2022-11-07T10:47:27.668Z,5.60
2022-11-07T10:48:29.587Z,5.63
2022-11-07T10:49:32.685Z,4.95
2022-11-07T10:50:34.301Z,4.53
2022-11-07T10:51:39.956Z,4.03
2022-11-07T10:52:41.507Z,5.40
2022-11-07T10:53:44.760Z,5.70
2022-11-07T10:54:47.027Z,6.75
2022-11-07T10:55:50.973Z,5.55
2022-11-07T10:57:10.807Z,6.40
2022-11-07T10:58:30.168Z,5.68
2022-11-07T10:59:36.498Z,5.07
2022-11-07T11:00:41.504Z,5.28
2022-11-07T11:01:54.725Z,7.32
2022-11-07T11:02:57.067Z,4.63
2022-11-07T11:03:58.603Z,8.48
2022-11-07T11:05:03.805Z,6.05
2022-11-07T11:06:21.872Z,5.28
2022-11-07T11:07:34.814Z,4.97
2022-11-07T11:08:38.362Z,3.97
2022-11-07T11:09:50.978Z,4.28
2022-11-07T11:10:52.760Z,5.43
2022-11-07T11:11:54.192Z,5.53
2022-11-07T11:12:56.242Z,8.25
2022-11-07T11:14:11.262Z,4.82
2022-11-07T11:15:15.977Z,4.53
2022-11-07T11:16:26.777Z,5.57
2022-11-07T11:17:28.573Z,5.18
2022-11-07T11:18:30.141Z,4.90
2022-11-07T11:19:47.850Z,5.40
2022-11-07T11:21:03.471Z,4.60
2022-11-07T11:22:15.279Z,5.05
2022-11-07T11:23:23.475Z,4.28
2022-11-07T11:24:30.610Z,4.88
2022-11-07T11:25:32.491Z,5.63
2022-11-07T11:26:39.683Z,5.32
2022-11-07T11:27:41.602Z,4.90
2022-11-07T11:28:46.904Z,5.05
2022-11-07T11:29:57.064Z,4.60
2022-11-07T11:31:04.971Z,7.05
2022-11-07T11:32:16.698Z,4.57
2022-11-07T11:33:26.950Z,6.50
2022-11-07T11:35:28.308Z,4.90
2022-11-07T11:36:36.962Z,6.05
2022-11-07T11:37:42.844Z,5.60
2022-11-07T11:38:53.058Z,8.00
2022-11-07T11:40:02.314Z,6.38
2022-11-07T11:41:31.729Z,6.25
2022-11-07T11:42:59.442Z,3.90
2022-11-07T11:44:13.050Z,6.63
2022-11-07T11:45:26.548Z,4.20
2022-11-07T11:46:33.364Z,6.38
2022-11-07T11:47:39.753Z,4.03
2022-11-07T11:48:47.274Z,6.05
2022-11-07T11:50:17.938Z,3.78
2022-11-07T11:51:34.162Z,5.55
2022-11-07T11:52:35.976Z,4.55
2022-11-07T11:53:37.554Z,6.80
2022-11-07T11:54:39.065Z,9.40
2022-11-07T11:55:52.325Z,5.40
2022-11-07T11:57:04.632Z,3.55
2022-11-07T11:58:19.300Z,4.55
2022-11-07T11:59:32.866Z,4.07
2022-11-07T12:00:49.005Z,5.15
2022-11-07T12:01:56.683Z,4.10
2022-11-07T12:03:15.856Z,4.57
2022-11-07T12:04:52.914Z,4.28
2022-11-07T12:06:13.225Z,3.53
2022-11-07T12:07:33.150Z,4.78
2022-11-07T12:08:52.634Z,5.78
2022-11-07T12:10:01.965Z,4.93
2022-11-07T12:11:12.865Z,5.20
2022-11-07T12:12:49.330Z,4.30
2022-11-07T12:13:59.065Z,6.30
2022-11-07T12:15:23.086Z,5.45
2022-11-07T12:16:34.600Z,3.97
2022-11-07T12:17:56.296Z,4.25
2022-11-07T12:19:33.294Z,4.43
2022-11-07T12:21:12.268Z,4.43
2022-11-07T12:22:50.193Z,3.60
2022-11-07T12:24:02.837Z,5.72
2022-11-07T12:25:16.703Z,4.90
2022-11-07T12:26:21.475Z,4.45
2022-11-07T12:27:44.931Z,4.30
2022-11-07T12:29:04.982Z,3.80
2022-11-07T12:30:30.400Z,3.85
2022-11-07T12:31:44.613Z,5.72
2022-11-07T12:32:46.029Z,4.90
2022-11-07T12:33:57.882Z,3.17
2022-11-07T12:35:22.603Z,3.53
2022-11-07T12:36:35.372Z,3.97
2022-11-07T12:38:11.874Z,4.05
2022-11-07T12:39:17.542Z,3.85
2022-11-07T12:40:53.065Z,5.18
2022-11-07T12:41:58.958Z,5.47
2022-11-07T12:43:15.673Z,4.30
2022-11-07T12:44:43.558Z,3.88
2022-11-07T12:45:54.160Z,4.47
2022-11-07T12:46:59.078Z,3.53
2022-11-07T12:48:13.617Z,3.53
2022-11-07T12:49:30.102Z,3.58
2022-11-07T12:50:56.510Z,6.40
2022-11-07T12:52:30.531Z,4.10
2022-11-07T12:53:52.818Z,3.83
2022-11-07T12:55:18.714Z,4.28
2022-11-07T12:56:27.037Z,4.05
2022-11-07T12:57:32.225Z,4.28
2022-11-07T12:58:35.397Z,4.95
2022-11-07T12:59:43.117Z,3.95
2022-11-07T13:00:45.577Z,6.30
2022-11-07T13:01:55.604Z,5.20
2022-11-07T13:03:48.333Z,3.22
2022-11-07T13:05:19.535Z,3.78
2022-11-07T13:06:44.403Z,5.20
2022-11-07T13:07:54.878Z,4.65
2022-11-07T13:08:59.286Z,5.25
2022-11-07T13:10:21.635Z,4.00
2022-11-07T13:11:38.719Z,5.63
2022-11-07T13:12:52.522Z,3.55
2022-11-07T13:14:08.992Z,6.20
2022-11-07T13:15:12.996Z,3.97
2022-11-07T13:16:34.450Z,5.20
2022-11-07T13:17:46.628Z,4.25
2022-11-07T13:18:48.174Z,6.25
2022-11-07T13:20:01.346Z,6.13
2022-11-07T13:21:05.343Z,3.10
2022-11-07T13:22:23.881Z,5.20
2022-11-07T13:23:27.944Z,4.10
2022-11-07T13:24:30.387Z,5.38
2022-11-07T13:25:34.700Z,3.85
2022-11-07T13:26:51.910Z,3.97
2022-11-07T13:27:53.314Z,5.13
2022-11-07T13:29:02.425Z,7.15
2022-11-07T13:30:30.042Z,3.75
2022-11-07T13:31:33.403Z,5.53
2022-11-07T13:32:39.408Z,5.22
2022-11-07T13:33:40.864Z,6.05
2022-11-07T13:34:55.862Z,5.53
2022-11-07T13:36:12.923Z,4.93
2022-11-07T13:37:24.486Z,5.20
2022-11-07T13:38:28.061Z,3.88
2022-11-07T13:39:30.787Z,3.70
2022-11-07T13:40:58.396Z,5.63
2022-11-07T13:42:00.655Z,4.15
2022-11-07T13:43:42.996Z,4.07
2022-11-07T13:44:53.419Z,4.65
2022-11-07T13:46:02.191Z,4.85
2022-11-07T13:47:10.418Z,4.22
2022-11-07T13:48:39.653Z,4.82
2022-11-07T13:49:45.799Z,5.40
2022-11-07T13:51:08.832Z,4.25
2022-11-07T13:52:28.534Z,5.07
2022-11-07T13:53:36.068Z,5.22
2022-11-07T13:54:57.090Z,3.83
2022-11-07T13:56:10.647Z,5.43
2022-11-07T13:57:23.655Z,4.03
2022-11-07T13:58:27.793Z,4.00
2022-11-07T13:59:54.110Z,5.28
2022-11-07T14:00:56.098Z,4.25
2022-11-07T14:01:58.135Z,4.47
2022-11-07T14:03:00.146Z,5.53
2022-11-07T14:04:15.079Z,5.05
2022-11-07T14:05:17.902Z,3.20
2022-11-07T14:06:20.186Z,5.40
2022-11-07T14:07:26.119Z,5.85
2022-11-07T14:08:48.344Z,6.15
2022-11-07T14:09:56.179Z,5.40
2022-11-07T14:10:58.761Z,8.60
2022-11-07T14:12:00.347Z,5.43
2022-11-07T14:13:07.685Z,5.15
2022-11-07T14:14:09.809Z,5.05
2022-11-07T14:15:16.724Z,4.60
2022-11-07T14:16:18.418Z,3.88
2022-11-07T14:17:22.507Z,4.50
2022-11-07T14:18:28.106Z,5.35
2022-11-07T14:19:30.366Z,4.95
2022-11-07T14:20:31.902Z,5.38
2022-11-07T14:21:36.829Z,4.13
2022-11-07T14:22:38.340Z,4.50
2022-11-07T14:23:44.786Z,5.68
2022-11-07T14:24:55.307Z,6.20
2022-11-07T14:26:00.716Z,7.80
2022-11-07T14:27:05.386Z,6.68
2022-11-07T14:28:16.081Z,4.65
2022-11-07T14:29:22.474Z,3.92
2022-11-07T14:30:25.904Z,4.95
2022-11-07T14:31:31.258Z,6.05
2022-11-07T14:32:33.405Z,5.45
2022-11-07T14:33:34.925Z,4.30
2022-11-07T14:34:43.991Z,4.70
2022-11-07T14:36:49.576Z,6.82
2022-11-07T14:37:51.752Z,3.88
2022-11-07T14:38:59.636Z,5.57
2022-11-07T14:40:01.153Z,3.78
2022-11-07T14:41:03.082Z,3.22
2022-11-07T14:42:05.219Z,4.68
2022-11-07T14:43:07.254Z,3.60
2022-11-07T14:44:16.566Z,4.10